createdAt,value
2022-10-11T00:01:26.839Z,100.00
2022-10-11T00:03:54.409Z,100.00
2022-10-11T00:06:21.945Z,100.00
2022-10-11T00:08:49.475Z,100.00
2022-10-11T00:11:18.372Z,100.00
2022-10-11T00:13:45.966Z,100.00
2022-10-11T00:16:15.422Z,100.00
2022-10-11T00:18:43.483Z,100.00
2022-10-11T00:21:13.850Z,100.00
2022-10-11T00:23:41.717Z,100.00
2022-10-11T00:26:11.877Z,100.00
2022-10-11T00:28:41.685Z,100.00
2022-10-11T00:31:10.613Z,100.00
2022-10-11T00:33:38.495Z,100.00
2022-10-11T00:36:07.047Z,100.00
2022-10-11T00:38:35.150Z,100.00
2022-10-11T00:41:02.824Z,100.00
2022-10-11T00:43:32.121Z,100.00
2022-10-11T00:46:22.925Z,100.00
2022-10-11T00:48:55.329Z,100.00
2022-10-11T00:51:31.020Z,100.00
2022-10-11T00:54:02.758Z,100.00
2022-10-11T00:56:33.650Z,100.00
2022-10-11T00:59:03.524Z,100.00
2022-10-11T01:01:32.713Z,100.00
2022-10-11T01:04:00.541Z,100.00
2022-10-11T01:06:28.383Z,100.00
2022-10-11T01:08:56.115Z,100.00
2022-10-11T01:11:26.566Z,100.00
2022-10-11T01:14:06.726Z,100.00
2022-10-11T01:16:43.602Z,100.00
2022-10-11T01:19:24.306Z,100.00
2022-10-11T01:21:58.585Z,100.00
2022-10-11T01:24:48.514Z,100.00
2022-10-11T01:27:47.089Z,100.00
2022-10-11T01:30:24.114Z,100.00
2022-10-11T01:32:58.674Z,100.00
2022-10-11T01:35:31.022Z,100.00
2022-10-11T01:38:04.202Z,100.00
2022-10-11T01:40:38.004Z,100.00
2022-10-11T01:43:06.930Z,100.00
2022-10-11T01:45:37.210Z,100.00
2022-10-11T01:48:08.902Z,100.00
2022-10-11T01:50:43.058Z,100.00
2022-10-11T01:53:32.003Z,100.00
2022-10-11T01:56:10.545Z,100.00
2022-10-11T01:58:51.623Z,100.00
2022-10-11T02:01:32.089Z,100.00
2022-10-11T02:04:07.286Z,100.00
2022-10-11T02:06:47.529Z,100.00
2022-10-11T02:09:24.655Z,100.00
2022-10-11T02:11:57.238Z,100.00
2022-10-11T02:14:31.482Z,100.00
2022-10-11T02:17:07.569Z,100.00
2022-10-11T02:19:38.961Z,100.00
2022-10-11T02:22:10.992Z,100.00
2022-10-11T02:24:42.303Z,100.00
2022-10-11T02:27:11.476Z,100.00
2022-10-11T02:29:42.487Z,100.00
2022-10-11T02:32:12.420Z,100.00
2022-10-11T02:34:46.089Z,100.00
2022-10-11T02:37:20.186Z,100.00
2022-10-11T02:39:53.891Z,100.00
2022-10-11T02:42:26.892Z,100.00
2022-10-11T02:45:01.094Z,100.00
2022-10-11T02:47:32.570Z,100.00
2022-10-11T02:50:00.988Z,100.00
2022-10-11T02:52:28.743Z,100.00
2022-10-11T02:54:56.389Z,100.00
2022-10-11T02:57:24.027Z,100.00
2022-10-11T02:59:51.604Z,100.00
2022-10-11T03:02:19.167Z,100.00
2022-10-11T03:04:48.346Z,100.00
2022-10-11T03:07:15.957Z,100.00
2022-10-11T03:09:43.573Z,100.00
2022-10-11T03:12:11.093Z,100.00
2022-10-11T03:14:38.621Z,100.00
2022-10-11T03:17:30.866Z,100.00
2022-10-11T03:19:55.179Z,100.00
2022-10-11T03:22:22.743Z,100.00
2022-10-11T03:24:50.265Z,100.00
2022-10-11T03:27:17.911Z,100.00
2022-10-11T03:29:45.309Z,100.00
2022-10-11T03:32:12.690Z,100.00
2022-10-11T03:34:40.082Z,100.00
2022-10-11T03:37:08.804Z,100.00
2022-10-11T03:39:36.371Z,100.00
2022-10-11T03:42:03.939Z,100.00
2022-10-11T03:44:31.478Z,100.00
2022-10-11T03:46:59.026Z,100.00
2022-10-11T03:49:26.845Z,100.00
2022-10-11T03:51:54.382Z,100.00
2022-10-11T03:54:23.600Z,100.00
2022-10-11T03:56:51.170Z,100.00
2022-10-11T03:59:18.744Z,100.00
2022-10-11T04:01:46.335Z,100.00
2022-10-11T04:04:13.861Z,100.00
2022-10-11T04:06:41.411Z,100.00
2022-10-11T04:09:09.456Z,100.00
2022-10-11T04:11:38.336Z,100.00
2022-10-11T04:14:06.141Z,100.00
2022-10-11T04:16:34.078Z,100.00
2022-10-11T04:19:02.144Z,100.00
2022-10-11T04:21:29.733Z,100.00
2022-10-11T04:23:57.250Z,100.00
2022-10-11T04:26:24.830Z,100.00
2022-10-11T04:28:53.770Z,100.00
2022-10-11T04:31:21.377Z,100.00
2022-10-11T04:33:48.941Z,100.00
2022-10-11T04:36:16.610Z,100.00
2022-10-11T04:38:44.146Z,100.00
2022-10-11T04:41:14.018Z,100.00
2022-10-11T04:43:41.589Z,100.00
2022-10-11T04:46:11.681Z,100.00
2022-10-11T04:48:39.434Z,100.00
2022-10-11T04:51:07.219Z,100.00
2022-10-11T04:53:34.771Z,100.00
2022-10-11T04:56:04.302Z,100.00
2022-10-11T04:58:33.845Z,100.00
2022-10-11T05:01:02.055Z,100.00
2022-10-11T05:03:31.491Z,100.00
2022-10-11T05:06:02.039Z,100.00
2022-10-11T05:08:32.920Z,100.00
2022-10-11T05:11:03.937Z,100.00
2022-10-11T05:13:32.143Z,100.00
2022-10-11T05:16:00.232Z,100.00
2022-10-11T05:18:28.441Z,100.00
2022-10-11T05:21:08.965Z,100.00
2022-10-11T05:23:37.675Z,100.00
2022-10-11T05:26:06.151Z,100.00
2022-10-11T05:28:34.235Z,100.00
2022-10-11T05:31:01.848Z,100.00
2022-10-11T05:33:29.381Z,100.00
2022-10-11T05:35:56.934Z,100.00
2022-10-11T05:38:25.882Z,100.00
2022-10-11T05:40:53.513Z,100.00
2022-10-11T05:43:21.460Z,100.00
2022-10-11T05:45:48.997Z,100.00
2022-10-11T05:48:16.510Z,100.00
2022-10-11T05:50:44.389Z,100.00
2022-10-11T05:53:12.282Z,100.00
2022-10-11T05:55:43.264Z,100.00
2022-10-11T05:58:13.683Z,100.00
2022-10-11T06:00:41.805Z,100.00
2022-10-11T06:03:11.705Z,100.00
2022-10-11T06:05:39.676Z,100.00
2022-10-11T06:08:09.866Z,100.00
2022-10-11T06:10:38.209Z,100.00
2022-10-11T06:13:07.806Z,100.00
2022-10-11T06:15:35.659Z,100.00
2022-10-11T06:18:03.187Z,100.00
2022-10-11T06:20:30.716Z,100.00
2022-10-11T06:22:59.330Z,100.00
2022-10-11T06:25:26.870Z,100.00
2022-10-11T06:27:54.949Z,100.00
2022-10-11T06:30:24.221Z,100.00
2022-10-11T06:32:51.762Z,100.00
2022-10-11T06:35:19.857Z,100.00
2022-10-11T06:37:47.421Z,100.00
2022-10-11T06:40:15.093Z,100.00
2022-10-11T06:42:42.647Z,100.00
2022-10-11T06:45:10.942Z,100.00
2022-10-11T06:47:39.837Z,100.00
2022-10-11T06:50:07.978Z,100.00
2022-10-11T06:52:35.513Z,100.00
2022-10-11T06:55:03.042Z,100.00
2022-10-11T06:57:30.805Z,100.00
2022-10-11T06:59:58.406Z,100.00
2022-10-11T07:02:25.986Z,100.00
2022-10-11T07:04:54.861Z,100.00
2022-10-11T07:07:22.405Z,100.00
2022-10-11T07:09:49.898Z,100.00
2022-10-11T07:12:17.438Z,100.00
2022-10-11T07:14:44.954Z,100.00
2022-10-11T07:17:12.484Z,100.00
2022-10-11T07:19:40.062Z,100.00
2022-10-11T07:22:09.018Z,99.89
2022-10-11T07:24:36.545Z,99.76
2022-10-11T07:27:04.102Z,99.68
2022-10-11T07:29:31.714Z,99.52
2022-10-11T07:31:59.313Z,99.84
2022-10-11T07:34:27.051Z,100.00
2022-10-11T07:36:54.708Z,100.00
2022-10-11T07:39:23.603Z,100.00
2022-10-11T07:41:51.255Z,100.00
2022-10-11T07:44:18.976Z,100.00
2022-10-11T07:46:46.615Z,99.89
2022-10-11T07:49:14.156Z,100.00
2022-10-11T07:51:41.733Z,98.75
2022-10-11T07:54:09.336Z,99.40
2022-10-11T07:56:39.854Z,100.00
2022-10-11T07:59:08.051Z,99.74
2022-10-11T08:01:35.617Z,99.25
2022-10-11T08:04:03.448Z,100.00
2022-10-11T08:06:32.667Z,100.00
2022-10-11T08:09:02.074Z,100.00
2022-10-11T08:11:31.220Z,100.00
2022-10-11T08:14:01.553Z,100.00
2022-10-11T08:16:29.277Z,98.13
2022-10-11T08:18:57.277Z,97.23
2022-10-11T08:21:26.639Z,95.48
2022-10-11T08:23:54.206Z,94.77
2022-10-11T08:26:22.144Z,95.82
2022-10-11T08:28:49.772Z,94.33
2022-10-11T08:31:18.765Z,95.29
2022-10-11T08:33:46.398Z,96.15
2022-10-11T08:36:14.355Z,94.50
2022-10-11T08:38:42.794Z,91.97
2022-10-11T08:41:33.595Z,93.83
2022-10-11T08:44:21.798Z,94.55
2022-10-11T08:47:00.410Z,94.93
2022-10-11T08:49:30.958Z,95.07
2022-10-11T08:52:02.501Z,94.06
2022-10-11T08:54:39.069Z,93.12
2022-10-11T08:57:08.405Z,91.95
2022-10-11T08:59:42.427Z,95.18
2022-10-11T09:02:25.200Z,95.16
2022-10-11T09:04:54.859Z,96.02
2022-10-11T09:07:33.941Z,94.01
2022-10-11T09:10:27.502Z,93.80
2022-10-11T09:13:05.498Z,95.12
2022-10-11T09:15:38.199Z,94.87
2022-10-11T09:18:26.177Z,92.78
2022-10-11T09:21:03.126Z,90.68
2022-10-11T09:23:45.359Z,91.27
2022-10-11T09:26:19.768Z,90.24
2022-10-11T09:29:01.237Z,90.33
2022-10-11T09:31:30.561Z,88.22
2022-10-11T09:34:06.913Z,88.06
2022-10-11T09:36:40.598Z,88.73
2022-10-11T09:39:22.118Z,85.94
2022-10-11T09:41:56.832Z,86.06
2022-10-11T09:44:28.041Z,84.51
2022-10-11T09:46:58.132Z,79.80
2022-10-11T09:49:32.264Z,74.25
2022-10-11T09:52:02.972Z,72.71
2022-10-11T09:54:40.898Z,67.63
2022-10-11T09:57:19.758Z,66.02
2022-10-11T09:59:59.726Z,60.12
2022-10-11T10:02:28.327Z,55.60
2022-10-11T10:05:02.947Z,58.19
2022-10-11T10:07:32.322Z,57.02
2022-10-11T10:09:59.930Z,58.80
2022-10-11T10:12:29.633Z,57.94
2022-10-11T10:15:05.997Z,55.04
2022-10-11T10:17:34.145Z,53.16
2022-10-11T10:20:05.512Z,53.58
2022-10-11T10:22:35.383Z,54.63
2022-10-11T10:25:07.914Z,53.99
2022-10-11T10:27:35.927Z,55.74
2022-10-11T10:30:14.332Z,55.75
2022-10-11T10:32:51.513Z,55.73
2022-10-11T10:35:33.841Z,57.05
2022-10-11T10:38:08.759Z,53.92
2022-10-11T10:40:43.766Z,54.74
2022-10-11T10:43:19.151Z,54.52
2022-10-11T10:46:13.260Z,51.90
2022-10-11T10:49:28.437Z,49.69
2022-10-11T10:51:49.095Z,50.63
2022-10-11T10:54:28.805Z,51.60
2022-10-11T10:56:59.343Z,48.29
2022-10-11T10:59:49.287Z,50.17
2022-10-11T11:02:39.597Z,51.17
2022-10-11T11:05:18.666Z,48.79
2022-10-11T11:07:52.610Z,48.69
2022-10-11T11:10:23.927Z,46.96
2022-10-11T11:12:59.860Z,46.71
2022-10-11T11:15:37.608Z,49.30
2022-10-11T11:18:21.185Z,47.47
2022-10-11T11:21:04.581Z,45.77
2022-10-11T11:23:43.131Z,46.79
2022-10-11T11:26:19.208Z,47.20
2022-10-11T11:28:55.625Z,45.62
2022-10-11T11:31:38.434Z,45.77
2022-10-11T11:34:14.785Z,44.50
2022-10-11T11:36:46.589Z,44.62
2022-10-11T11:39:19.922Z,44.63
2022-10-11T11:41:51.253Z,44.93
2022-10-11T11:44:27.330Z,44.95
2022-10-11T11:47:00.840Z,43.77
2022-10-11T11:49:35.319Z,44.91
2022-10-11T11:52:05.341Z,44.19
2022-10-11T11:54:42.929Z,44.79
2022-10-11T11:57:24.006Z,44.62
2022-10-11T11:59:58.009Z,43.98
2022-10-11T12:02:46.247Z,42.10
2022-10-11T12:05:16.247Z,44.79
2022-10-11T12:07:51.130Z,44.15
2022-10-11T12:10:28.081Z,43.47
2022-10-11T12:13:19.042Z,46.56
2022-10-11T12:16:00.658Z,48.37
2022-10-11T12:18:29.342Z,48.10
2022-10-11T12:21:06.109Z,46.14
2022-10-11T12:23:47.732Z,46.54
2022-10-11T12:26:41.802Z,47.57
2022-10-11T12:29:29.016Z,47.50
2022-10-11T12:32:50.925Z,45.38
2022-10-11T12:35:51.219Z,44.46
2022-10-11T12:38:21.947Z,45.66
2022-10-11T12:40:51.278Z,46.63
2022-10-11T12:43:30.724Z,46.29
2022-10-11T12:45:58.451Z,46.78
2022-10-11T12:48:54.766Z,46.32
2022-10-11T12:51:34.623Z,46.34
2022-10-11T12:54:36.122Z,46.04
2022-10-11T12:57:28.380Z,46.04
2022-10-11T13:00:17.317Z,47.58
2022-10-11T13:02:45.351Z,48.43
2022-10-11T13:05:21.746Z,47.47
2022-10-11T13:07:50.312Z,47.42
2022-10-11T13:10:23.059Z,45.43
2022-10-11T13:12:51.779Z,45.10
2022-10-11T13:15:23.637Z,45.43
2022-10-11T13:17:54.055Z,46.25
2022-10-11T13:20:25.111Z,46.19
2022-10-11T13:22:55.622Z,46.78
2022-10-11T13:25:25.534Z,46.64
2022-10-11T13:27:55.482Z,45.95
2022-10-11T13:30:28.059Z,46.25
2022-10-11T13:32:55.903Z,46.33
2022-10-11T13:35:30.343Z,45.98
2022-10-11T13:37:58.291Z,46.11
2022-10-11T13:40:26.577Z,46.20
2022-10-11T13:42:56.019Z,44.89
2022-10-11T13:45:26.532Z,44.95
2022-10-11T13:47:55.745Z,45.46
2022-10-11T13:50:31.523Z,44.08
2022-10-11T13:53:01.456Z,44.36
2022-10-11T13:55:33.458Z,44.75
2022-10-11T13:58:03.875Z,44.77
2022-10-11T14:00:39.492Z,43.13
2022-10-11T14:03:18.589Z,44.78
2022-10-11T14:05:54.735Z,46.71
2022-10-11T14:08:28.075Z,47.47
2022-10-11T14:10:58.573Z,47.02
2022-10-11T14:13:32.598Z,47.34
2022-10-11T14:16:05.215Z,45.85
2022-10-11T14:18:39.965Z,46.56
2022-10-11T14:21:29.393Z,47.00
2022-10-11T14:23:59.465Z,46.87
2022-10-11T14:26:31.866Z,48.03
2022-10-11T14:29:01.580Z,48.49
2022-10-11T14:31:30.906Z,49.03
2022-10-11T14:33:59.251Z,49.05
2022-10-11T14:36:26.865Z,47.37
2022-10-11T14:38:54.604Z,48.88
2022-10-11T14:41:22.332Z,49.50
2022-10-11T14:43:49.934Z,48.99
2022-10-11T14:46:23.533Z,49.45
2022-10-11T14:48:55.933Z,49.42
2022-10-11T14:51:28.826Z,49.79
2022-10-11T14:53:56.460Z,50.39
2022-10-11T14:56:24.295Z,49.35
2022-10-11T14:58:51.950Z,50.64
2022-10-11T15:01:19.514Z,50.86
2022-10-11T15:03:47.110Z,49.79
2022-10-11T15:06:19.809Z,48.77
2022-10-11T15:08:47.380Z,49.22
2022-10-11T15:11:17.813Z,50.09
2022-10-11T15:13:45.779Z,50.98
2022-10-11T15:16:15.471Z,51.33
2022-10-11T15:18:43.925Z,50.70
2022-10-11T15:21:14.620Z,50.87
2022-10-11T15:23:43.511Z,53.06
2022-10-11T15:26:14.458Z,54.10
2022-10-11T15:28:42.181Z,55.30
2022-10-11T15:31:10.471Z,56.33
2022-10-11T15:33:38.781Z,56.41
2022-10-11T15:36:08.722Z,55.93
2022-10-11T15:38:36.745Z,57.04
2022-10-11T15:41:06.050Z,56.79
2022-10-11T15:43:33.711Z,57.24
2022-10-11T15:46:03.283Z,58.72
2022-10-11T15:48:32.688Z,59.35
2022-10-11T15:51:00.347Z,59.46
2022-10-11T15:53:31.083Z,60.01
2022-10-11T15:56:00.436Z,60.18
2022-10-11T15:58:31.666Z,60.46
2022-10-11T16:01:01.856Z,59.99
2022-10-11T16:03:31.058Z,59.54
2022-10-11T16:06:04.010Z,59.22
2022-10-11T16:08:32.982Z,59.55
2022-10-11T16:11:01.081Z,60.27
2022-10-11T16:13:29.980Z,61.10
2022-10-11T16:15:57.506Z,60.80
2022-10-11T16:18:25.208Z,61.55
2022-10-11T16:20:52.956Z,62.47
2022-10-11T16:23:21.894Z,62.62
2022-10-11T16:25:57.766Z,64.82
2022-10-11T16:28:25.481Z,66.62
2022-10-11T16:30:54.797Z,67.79
2022-10-11T16:33:22.707Z,69.05
2022-10-11T16:35:50.358Z,70.98
2022-10-11T16:38:18.016Z,71.11
2022-10-11T16:40:45.578Z,72.65
2022-10-11T16:43:13.113Z,74.76
2022-10-11T16:45:40.646Z,75.12
2022-10-11T16:48:09.532Z,75.76
2022-10-11T16:50:39.695Z,77.36
2022-10-11T16:53:07.569Z,79.19
2022-10-11T16:55:35.126Z,80.51
2022-10-11T16:58:03.012Z,83.55
2022-10-11T17:00:30.653Z,83.94
2022-10-11T17:02:58.269Z,85.81
2022-10-11T17:05:27.270Z,89.33
2022-10-11T17:07:54.859Z,90.16
2022-10-11T17:10:39.036Z,91.86
2022-10-11T17:13:06.747Z,94.05
2022-10-11T17:15:36.118Z,97.58
2022-10-11T17:18:04.665Z,97.70
2022-10-11T17:20:33.889Z,98.01
2022-10-11T17:23:01.517Z,98.61
2022-10-11T17:25:29.756Z,98.84
2022-10-11T17:27:57.782Z,96.35
2022-10-11T17:30:26.001Z,97.15
2022-10-11T17:32:53.846Z,98.39
2022-10-11T17:35:21.402Z,98.31
2022-10-11T17:37:50.473Z,98.36
2022-10-11T17:40:18.506Z,99.62
2022-10-11T17:42:47.658Z,96.67
2022-10-11T17:45:15.422Z,98.18
2022-10-11T17:47:42.926Z,98.54
2022-10-11T17:50:10.743Z,96.88
2022-10-11T17:52:38.349Z,100.00
2022-10-11T17:55:07.770Z,100.00
2022-10-11T17:57:35.374Z,100.00
2022-10-11T18:00:03.816Z,100.00
2022-10-11T18:02:31.433Z,100.00
2022-10-11T18:04:58.970Z,100.00
2022-10-11T18:07:26.538Z,100.00
2022-10-11T18:09:54.106Z,100.00
2022-10-11T18:12:23.088Z,100.00
2022-10-11T18:14:51.907Z,100.00
2022-10-11T18:17:19.973Z,100.00
2022-10-11T18:19:47.704Z,100.00
2022-10-11T18:22:15.429Z,100.00
2022-10-11T18:24:43.111Z,100.00
2022-10-11T18:27:10.953Z,100.00
2022-10-11T18:29:42.502Z,100.00
2022-10-11T18:32:10.314Z,100.00
2022-10-11T18:34:38.004Z,100.00
2022-10-11T18:37:05.878Z,100.00
2022-10-11T18:39:33.700Z,100.00
2022-10-11T18:42:04.419Z,100.00
2022-10-11T18:44:32.806Z,100.00
2022-10-11T18:47:01.926Z,100.00
2022-10-11T18:49:30.035Z,100.00
2022-10-11T18:51:57.914Z,100.00
2022-10-11T18:54:25.652Z,100.00
2022-10-11T18:56:53.441Z,100.00
2022-10-11T18:59:21.157Z,100.00
2022-10-11T19:01:52.009Z,100.00
2022-10-11T19:04:21.128Z,100.00
2022-10-11T19:06:50.480Z,100.00
2022-10-11T19:09:21.721Z,100.00
2022-10-11T19:11:50.032Z,100.00
2022-10-11T19:14:19.585Z,100.00
2022-10-11T19:16:51.213Z,100.00
2022-10-11T19:19:23.454Z,100.00
2022-10-11T19:21:51.786Z,100.00
2022-10-11T19:24:22.038Z,100.00
2022-10-11T19:26:50.333Z,100.00
2022-10-11T19:29:20.696Z,100.00
2022-10-11T19:31:50.751Z,100.00
2022-10-11T19:34:18.618Z,100.00
2022-10-11T19:36:50.106Z,100.00
2022-10-11T19:39:19.446Z,100.00
2022-10-11T19:41:47.701Z,100.00
2022-10-11T19:44:16.278Z,100.00
2022-10-11T19:46:51.491Z,100.00
2022-10-11T19:49:22.708Z,100.00
2022-10-11T19:51:52.197Z,100.00
2022-10-11T19:54:19.978Z,100.00
2022-10-11T19:56:47.888Z,100.00
2022-10-11T19:59:16.094Z,100.00
2022-10-11T20:01:47.887Z,100.00
2022-10-11T20:04:46.964Z,100.00
2022-10-11T20:07:08.235Z,100.00
2022-10-11T20:09:36.741Z,100.00
2022-10-11T20:12:04.562Z,100.00
2022-10-11T20:14:32.351Z,100.00
2022-10-11T20:16:59.961Z,100.00
2022-10-11T20:19:31.360Z,100.00
2022-10-11T20:22:00.226Z,100.00
2022-10-11T20:24:33.468Z,100.00
2022-10-11T20:27:02.162Z,100.00
2022-10-11T20:29:30.107Z,100.00
2022-10-11T20:31:58.911Z,100.00
2022-10-11T20:34:27.528Z,100.00
2022-10-11T20:36:55.106Z,100.00
2022-10-11T20:39:23.571Z,100.00
2022-10-11T20:41:52.570Z,100.00
2022-10-11T20:44:20.133Z,100.00
2022-10-11T20:46:47.679Z,100.00
2022-10-11T20:49:15.266Z,100.00
2022-10-11T20:51:43.746Z,100.00
2022-10-11T20:54:11.647Z,100.00
2022-10-11T20:56:39.509Z,100.00
2022-10-11T20:59:09.417Z,100.00
2022-10-11T21:01:39.762Z,100.00
2022-10-11T21:04:11.082Z,100.00
2022-10-11T21:06:38.642Z,100.00
2022-10-11T21:09:06.179Z,100.00
2022-10-11T21:11:35.414Z,100.00
2022-10-11T21:14:05.812Z,100.00
2022-10-11T21:16:35.143Z,100.00
2022-10-11T21:19:03.877Z,100.00
2022-10-11T21:21:31.942Z,100.00
2022-10-11T21:24:01.521Z,100.00
2022-10-11T21:26:30.553Z,100.00
2022-10-11T21:28:59.140Z,100.00
2022-10-11T21:31:31.027Z,100.00
2022-10-11T21:34:03.169Z,100.00
2022-10-11T21:36:31.690Z,100.00
2022-10-11T21:38:59.335Z,100.00
2022-10-11T21:41:30.243Z,100.00
2022-10-11T21:43:58.370Z,100.00
2022-10-11T21:46:47.556Z,100.00
2022-10-11T21:49:16.601Z,100.00
2022-10-11T21:51:44.205Z,100.00
2022-10-11T21:54:11.884Z,100.00
2022-10-11T21:56:39.402Z,100.00
2022-10-11T21:59:11.071Z,100.00
2022-10-11T22:01:40.756Z,100.00
2022-10-11T22:04:08.935Z,100.00
2022-10-11T22:06:38.877Z,100.00
2022-10-11T22:09:07.550Z,100.00
2022-10-11T22:11:35.334Z,100.00
2022-10-11T22:14:02.895Z,100.00
2022-10-11T22:16:30.629Z,100.00
2022-10-11T22:18:58.161Z,100.00
2022-10-11T22:21:25.746Z,100.00
2022-10-11T22:23:55.242Z,100.00
2022-10-11T22:26:25.329Z,100.00
2022-10-11T22:28:54.101Z,100.00
2022-10-11T22:31:22.677Z,100.00
2022-10-11T22:33:53.790Z,100.00
2022-10-11T22:36:23.917Z,100.00
2022-10-11T22:38:51.951Z,100.00
2022-10-11T22:41:20.933Z,100.00
2022-10-11T22:43:48.563Z,100.00
2022-10-11T22:46:16.343Z,100.00
2022-10-11T22:48:43.914Z,100.00
2022-10-11T22:51:11.473Z,100.00
2022-10-11T22:53:39.540Z,100.00
2022-10-11T22:56:08.716Z,100.00
2022-10-11T22:58:37.662Z,100.00
2022-10-11T23:01:09.446Z,100.00
2022-10-11T23:03:37.098Z,100.00
2022-10-11T23:06:04.990Z,100.00
2022-10-11T23:08:32.740Z,100.00
2022-10-11T23:11:03.682Z,100.00
2022-10-11T23:13:31.242Z,100.00
2022-10-11T23:16:00.221Z,100.00
2022-10-11T23:18:27.827Z,100.00
2022-10-11T23:20:55.394Z,100.00
2022-10-11T23:23:22.955Z,100.00
2022-10-11T23:25:50.559Z,100.00
2022-10-11T23:28:18.105Z,100.00
2022-10-11T23:30:45.686Z,100.00
2022-10-11T23:33:14.644Z,100.00
2022-10-11T23:35:42.216Z,100.00
2022-10-11T23:38:09.745Z,100.00
2022-10-11T23:40:37.310Z,100.00
2022-10-11T23:43:04.837Z,100.00
2022-10-11T23:45:32.373Z,100.00
2022-10-11T23:47:59.908Z,100.00
2022-10-11T23:50:28.797Z,100.00
2022-10-11T23:52:57.058Z,100.00
2022-10-11T23:55:24.604Z,100.00
2022-10-11T23:57:52.208Z,100.00
